createdAt,value
2019-01-22T00:02:38.033Z,99251.92
2019-01-22T00:07:43.947Z,99247.88
2019-01-22T00:12:49.576Z,99237.05
2019-01-22T00:17:55.573Z,99232.89
2019-01-22T00:23:02.992Z,99226.41
2019-01-22T00:28:09.035Z,99223.52
2019-01-22T00:33:15.875Z,99213.84
2019-01-22T00:38:22.572Z,99204.34
2019-01-22T00:43:28.224Z,99206.66
2019-01-22T00:48:33.892Z,99202.52
2019-01-22T00:53:39.583Z,99186.17
2019-01-22T00:58:45.183Z,99181.47
2019-01-22T01:03:50.817Z,99173.30
2019-01-22T01:08:56.389Z,99179.42
2019-01-22T01:14:02.034Z,99182.78
2019-01-22T01:19:07.700Z,99178.08
2019-01-22T01:24:13.363Z,99171.20
2019-01-22T01:29:19.316Z,99170.75
2019-01-22T01:34:24.950Z,99157.59
2019-01-22T01:39:30.530Z,99154.77
2019-01-22T01:44:36.581Z,99146.33
2019-01-22T01:49:43.471Z,99139.94
2019-01-22T01:54:49.348Z,99144.48
2019-01-22T01:59:54.998Z,99140.63
2019-01-22T02:05:00.638Z,99125.45
2019-01-22T02:10:07.708Z,99117.01
2019-01-22T02:15:18.342Z,99117.72
2019-01-22T02:20:40.395Z,99116.77
2019-01-22T02:26:21.850Z,99113.97
2019-01-22T02:31:57.742Z,99106.20
2019-01-22T02:37:43.032Z,99091.20
2019-01-22T02:43:15.768Z,99082.56
2019-01-22T02:49:09.690Z,99076.34
2019-01-22T02:54:21.246Z,99070.08
2019-01-22T03:00:10.444Z,99072.95
2019-01-22T16:10:29.146Z,98300.38
2019-01-22T16:15:34.922Z,98295.58
2019-01-22T16:20:41.285Z,98293.39
2019-01-22T16:25:46.946Z,98285.00
2019-01-22T16:30:53.023Z,98287.91
2019-01-22T16:36:00.283Z,98280.41
2019-01-22T16:41:06.884Z,98281.42
2019-01-22T16:46:12.577Z,98275.00
2019-01-22T16:51:18.220Z,98267.35
2019-01-22T16:56:26.939Z,98259.72
2019-01-22T17:06:37.795Z,98258.14
2019-01-22T17:11:43.557Z,98254.02
2019-01-22T17:16:49.346Z,98255.84
2019-01-22T17:21:57.110Z,98255.08
2019-01-22T17:27:07.267Z,98259.14
2019-01-22T17:32:49.072Z,98251.17
2019-01-22T17:37:54.780Z,98255.06
2019-01-22T17:43:00.475Z,98249.94
2019-01-22T17:48:07.074Z,98245.47
2019-01-22T17:53:12.795Z,98230.61
2019-01-22T17:58:19.727Z,98222.52
2019-01-22T18:03:27.962Z,98219.55
2019-01-22T18:08:33.700Z,98222.31
2019-01-22T18:13:40.444Z,98208.66
2019-01-22T18:18:46.530Z,98221.00
2019-01-22T18:23:52.401Z,98211.39
2019-01-22T18:28:58.114Z,98204.39
2019-01-22T18:34:04.848Z,98196.23
2019-01-22T18:39:12.619Z,98187.36
2019-01-22T18:44:22.368Z,98190.91
2019-01-22T18:49:29.532Z,98174.89
2019-01-22T18:54:38.233Z,98169.23
2019-01-22T18:59:44.478Z,98168.27
2019-01-22T19:04:51.600Z,98160.84
2019-01-22T19:09:57.332Z,98160.82
2019-01-22T19:15:07.226Z,98163.55
2019-01-22T19:20:14.855Z,98162.34
2019-01-22T19:25:25.597Z,98157.92
2019-01-22T19:30:32.306Z,98146.39
2019-01-22T19:35:39.655Z,98138.16
2019-01-22T19:40:45.679Z,98128.39
2019-01-22T19:45:51.745Z,98126.10
2019-01-22T19:50:57.870Z,98126.69
2019-01-22T19:56:14.885Z,98126.62
2019-01-22T20:01:22.099Z,98116.52
2019-01-22T20:06:28.424Z,98114.75
2019-01-22T20:11:36.380Z,98109.48
2019-01-22T20:16:42.542Z,98121.58
2019-01-22T20:21:49.633Z,98112.70
2019-01-22T20:26:55.444Z,98115.32
2019-01-22T20:32:12.114Z,98112.91
2019-01-22T20:37:19.670Z,98112.05
2019-01-22T20:42:25.396Z,98110.91
2019-01-22T20:47:31.189Z,98101.05
2019-01-22T20:52:36.944Z,98097.34
2019-01-22T20:57:42.948Z,98100.43
2019-01-22T21:02:50.750Z,98089.16
2019-01-22T21:07:57.249Z,98081.32
2019-01-22T21:13:05.743Z,98077.16
2019-01-22T21:18:11.820Z,98076.68
2019-01-22T21:23:18.782Z,98075.63
2019-01-22T21:28:24.961Z,98073.86
2019-01-22T21:33:31.581Z,98068.06
2019-01-22T21:38:37.528Z,98063.67
2019-01-22T21:43:43.241Z,98057.19
2019-01-22T21:48:49.960Z,98054.30
2019-01-22T21:53:55.653Z,98054.45
2019-01-22T21:59:01.434Z,98052.06
2019-01-22T22:04:09.788Z,98048.25
2019-01-22T22:09:16.243Z,98038.93
2019-01-22T22:14:22.283Z,98031.06
2019-01-22T22:19:29.466Z,98024.91
2019-01-22T22:24:36.664Z,98024.84
2019-01-22T22:29:42.538Z,98019.77
2019-01-22T22:34:48.204Z,98009.39
2019-01-22T22:39:53.910Z,98009.84
2019-01-22T22:45:00.525Z,98002.77
2019-01-22T22:50:08.067Z,97990.33
2019-01-22T22:55:13.721Z,97991.02
2019-01-22T23:00:32.410Z,97982.48
2019-01-22T23:05:39.612Z,97980.19
2019-01-22T23:10:47.371Z,97973.11
2019-01-22T23:15:54.092Z,97965.87
2019-01-22T23:21:00.312Z,97962.81
2019-01-22T23:26:09.308Z,97954.59
2019-01-22T23:31:15.418Z,97951.00
2019-01-22T23:36:21.011Z,97944.52
2019-01-22T23:41:26.603Z,97949.14
2019-01-22T23:46:33.001Z,97932.83
2019-01-22T23:51:47.452Z,97926.19
2019-01-22T23:56:54.677Z,97909.97
